Time;durP1;ratioP1;P1;durP2;ratioP2;P2;SDS_P1;SDS_P2;PMS_P1;PMS_P2;Temp;Humidity;BMP_temperature;BMP_pressure;BME280_temperature;BME280_humidity;BME280_pressure;Samples;Min_cycle;Max_cycle;Signal;HPM_P1;HPM_P2
2022/06/05 00:00:46;;;;;;;10.77;6.93;;;;;;;-142.64;100.00;58178.75;5071659;28;20535;-66
2022/06/05 00:03:11;;;;;;;12.05;6.95;;;;;;;-142.64;100.00;58178.75;5074912;28;20024;-65
2022/06/05 00:05:43;;;;;;;11.35;7.07;;;;;;;-142.64;100.00;58178.75;5075216;28;20487;-65
2022/06/05 00:08:17;;;;;;;9.82;7.30;;;;;;;-142.64;100.00;58178.75;5074981;28;20086;-65
2022/06/05 00:10:52;;;;;;;12.73;7.75;;;;;;;-142.64;100.00;58178.75;5074923;28;20457;-63
2022/06/05 00:13:32;;;;;;;10.10;6.93;;;;;;;-142.64;100.00;58178.75;5074999;28;20043;-65
2022/06/05 00:15:58;;;;;;;8.95;7.30;;;;;;;-142.64;100.00;58178.75;5073656;28;20435;-65
2022/06/05 00:18:23;;;;;;;7.80;6.25;;;;;;;-142.64;100.00;58178.75;5073613;28;20063;-65
2022/06/05 00:20:49;;;;;;;9.80;6.78;;;;;;;-142.64;100.00;58178.75;5074873;28;20032;-64
2022/06/05 00:23:14;;;;;;;10.25;7.63;;;;;;;-142.64;100.00;58178.75;5073586;28;20467;-65
2022/06/05 00:25:59;;;;;;;9.45;7.28;;;;;;;-142.64;100.00;58178.75;5057018;28;20048;-64
2022/06/05 00:28:46;;;;;;;11.38;7.25;;;;;;;-142.64;100.00;58178.75;5074725;28;20040;-65
2022/06/05 00:31:34;;;;;;;8.55;6.65;;;;;;;-142.64;100.00;58178.75;5074843;28;20035;-64
2022/06/05 00:34:00;;;;;;;14.02;7.35;;;;;;;-142.64;100.00;58178.75;5073436;28;20060;-64
2022/06/05 00:36:50;;;;;;;9.77;6.70;;;;;;;-142.64;100.00;58178.75;5073218;28;20432;-65
2022/06/05 00:39:47;;;;;;;8.27;7.00;;;;;;;-142.64;100.00;58178.75;5073036;28;20029;-65
2022/06/05 00:42:16;;;;;;;12.93;7.78;;;;;;;-142.64;100.00;58178.75;5074405;28;20024;-66
2022/06/05 00:44:49;;;;;;;8.95;7.35;;;;;;;-142.64;100.00;58178.75;5073267;28;20024;-65
2022/06/05 00:47:18;;;;;;;10.50;7.20;;;;;;;-142.64;100.00;58178.75;5074920;28;20108;-65
2022/06/05 00:50:11;;;;;;;8.90;6.45;;;;;;;-142.64;100.00;58178.75;5074225;28;20513;-66
2022/06/05 00:52:39;;;;;;;11.45;6.70;;;;;;;-142.64;100.00;58178.75;5072078;28;20070;-64
2022/06/05 00:55:05;;;;;;;10.65;7.10;;;;;;;-142.64;100.00;58178.75;5073157;28;20025;-66
2022/06/05 00:57:33;;;;;;;9.43;6.80;;;;;;;-142.64;100.00;58178.75;5074112;28;20037;-63
2022/06/05 00:59:59;;;;;;;12.30;8.07;;;;;;;-142.64;100.00;58178.75;5072988;28;20024;-64
2022/06/05 01:02:25;;;;;;;9.43;7.47;;;;;;;-142.64;100.00;58178.75;5072887;28;20380;-65
2022/06/05 01:04:51;;;;;;;7.20;6.28;;;;;;;-142.64;100.00;58178.75;5074029;28;20044;-65
2022/06/05 01:07:18;;;;;;;8.65;7.28;;;;;;;-142.64;100.00;58178.75;5073920;28;20032;-65
2022/06/05 01:09:45;;;;;;;9.32;7.80;;;;;;;-142.64;100.00;58178.75;5073931;28;20025;-65
2022/06/05 01:12:30;;;;;;;8.70;7.18;;;;;;;-142.64;100.00;58178.75;5071591;28;20530;-66
2022/06/05 01:15:12;;;;;;;9.23;7.45;;;;;;;-142.64;100.00;58178.75;5072845;28;20036;-65
2022/06/05 01:17:43;;;;;;;11.40;7.25;;;;;;;-142.64;100.00;58178.75;5073590;28;20068;-64
2022/06/05 01:20:38;;;;;;;7.97;6.47;;;;;;;-142.64;100.00;58178.75;5072639;28;20028;-66
2022/06/05 01:23:46;;;;;;;9.48;6.80;;;;;;;-142.64;100.00;58178.75;5072241;28;20483;-65
2022/06/05 01:26:27;;;;;;;8.43;6.68;;;;;;;-142.64;100.00;58178.75;5063109;28;20039;-65
2022/06/05 01:29:08;;;;;;;10.52;8.30;;;;;;;-142.64;100.00;58178.75;5073579;28;20037;-65
2022/06/05 01:31:41;;;;;;;8.25;7.45;;;;;;;-142.64;100.00;58178.75;5072411;28;20470;-65
2022/06/05 01:34:13;;;;;;;12.50;7.43;;;;;;;-142.64;100.00;58178.75;5073353;28;20404;-63
2022/06/05 01:37:00;;;;;;;12.23;7.35;;;;;;;-142.64;100.00;58178.75;5073442;28;20029;-64
2022/06/05 01:39:32;;;;;;;8.15;7.28;;;;;;;-142.64;100.00;58178.75;5072150;28;20028;-64
2022/06/05 01:42:01;;;;;;;9.95;7.82;;;;;;;-142.64;100.00;58178.75;5071942;28;20026;-66
2022/06/05 01:44:31;;;;;;;9.68;7.35;;;;;;;-142.64;100.00;58178.75;5073564;28;20037;-65
2022/06/05 01:47:01;;;;;;;7.80;6.32;;;;;;;-142.64;100.00;58178.75;5072260;28;20032;-65
2022/06/05 01:49:32;;;;;;;9.05;6.90;;;;;;;-142.64;100.00;58178.75;5071766;28;20086;-64
2022/06/05 01:52:01;;;;;;;7.97;7.20;;;;;;;-142.64;100.00;58178.75;5071730;28;20221;-66
2022/06/05 01:54:36;;;;;;;9.20;7.40;;;;;;;-142.64;100.00;58178.75;5071651;28;20057;-66
2022/06/05 01:57:05;;;;;;;9.15;7.03;;;;;;;-142.64;100.00;58178.75;5072198;28;20108;-65
2022/06/05 01:59:52;;;;;;;9.70;7.18;;;;;;;-142.64;100.00;58178.75;5072961;28;20065;-65
2022/06/05 02:02:24;;;;;;;8.88;7.13;;;;;;;-142.64;100.00;58178.75;5071568;28;20024;-66
2022/06/05 02:04:53;;;;;;;10.27;7.95;;;;;;;-142.64;100.00;58178.75;5071453;28;20055;-64
2022/06/05 02:07:28;;;;;;;10.65;7.85;;;;;;;-142.64;100.00;58178.75;5071766;28;20042;-64
2022/06/05 02:10:05;;;;;;;10.35;7.97;;;;;;;-142.64;100.00;58178.75;5073212;28;20083;-64
2022/06/05 02:12:32;;;;;;;11.07;7.72;;;;;;;-142.64;100.00;58178.75;5071834;28;20024;-56
2022/06/05 02:14:58;;;;;;;12.23;8.43;;;;;;;-142.64;100.00;58178.75;5071392;28;20107;-58
2022/06/05 02:17:23;;;;;;;10.75;8.93;;;;;;;-142.64;100.00;58178.75;5071650;28;20171;-55
2022/06/05 02:19:49;;;;;;;12.60;8.95;;;;;;;-142.64;100.00;58178.75;5072831;28;20404;-56
2022/06/05 02:22:42;;;;;;;12.90;9.27;;;;;;;-142.64;100.00;58178.75;5072634;28;20039;-55
2022/06/05 02:25:08;;;;;;;15.73;9.82;;;;;;;-142.64;100.00;58178.75;5070130;28;20044;-53
2022/06/05 02:27:34;;;;;;;12.90;9.50;;;;;;;-142.64;100.00;58178.75;5071172;28;20056;-56
2022/06/05 02:29:59;;;;;;;13.68;9.55;;;;;;;-142.64;100.00;58178.75;5071187;28;20064;-57
2022/06/05 02:32:27;;;;;;;15.00;10.38;;;;;;;-142.64;100.00;58178.75;5070752;28;20036;-56
2022/06/05 02:34:53;;;;;;;11.52;9.65;;;;;;;-142.64;100.00;58178.75;5072401;28;20032;-54
2022/06/05 02:37:24;;;;;;;12.13;9.77;;;;;;;-142.64;100.00;58178.75;5072497;28;20039;-53
2022/06/05 02:40:08;;;;;;;12.73;8.90;;;;;;;-142.64;100.00;58178.75;5072485;28;20294;-59
2022/06/05 02:42:41;;;;;;;12.27;9.48;;;;;;;-142.64;100.00;58178.75;5072360;28;20036;-52
2022/06/05 02:45:41;;;;;;;12.27;10.20;;;;;;;-142.64;100.00;58178.75;5070977;28;20052;-53
2022/06/05 02:48:15;;;;;;;10.68;9.65;;;;;;;-142.64;100.00;58178.75;5070825;28;20029;-54
2022/06/05 02:50:47;;;;;;;13.23;11.73;;;;;;;-142.64;100.00;58178.75;5072519;28;20480;-55
2022/06/05 02:53:14;;;;;;;17.15;12.07;;;;;;;-142.64;100.00;58178.75;5071082;28;20025;-52
2022/06/05 02:55:40;;;;;;;12.68;11.38;;;;;;;-142.64;100.00;58178.75;5072401;28;20082;-53
2022/06/05 02:58:06;;;;;;;17.00;11.60;;;;;;;-142.64;100.00;58178.75;5072232;28;20432;-55
2022/06/05 03:00:33;;;;;;;14.27;11.27;;;;;;;-142.64;100.00;58178.75;5072217;28;20044;-55
2022/06/05 03:05:43;;;;;;;23.85;13.68;;;;;;;-142.64;100.00;58178.75;5071042;28;20060;-60
2022/06/05 03:08:12;;;;;;;17.40;12.85;;;;;;;-142.64;100.00;58178.75;5072254;28;20036;-58
2022/06/05 03:10:39;;;;;;;16.52;13.80;;;;;;;-142.64;100.00;58178.75;5054292;28;20070;-63
2022/06/05 03:13:05;;;;;;;17.15;13.25;;;;;;;-142.64;100.00;58178.75;5071979;28;20480;-60
2022/06/05 03:15:31;;;;;;;16.42;13.02;;;;;;;-142.64;100.00;58178.75;5071943;28;20051;-62
2022/06/05 03:17:57;;;;;;;19.77;13.75;;;;;;;-142.64;100.00;58178.75;5072313;28;20111;-60
2022/06/05 03:20:22;;;;;;;19.05;13.82;;;;;;;-142.64;100.00;58178.75;5072219;28;20530;-60
2022/06/05 03:22:47;;;;;;;16.77;12.88;;;;;;;-142.64;100.00;58178.75;5070634;28;20074;-59
2022/06/05 03:25:18;;;;;;;18.48;14.50;;;;;;;-142.64;100.00;58178.75;5072090;28;20490;-59
2022/06/05 03:27:44;;;;;;;23.13;13.90;;;;;;;-142.64;100.00;58178.75;5070869;28;20051;-59
2022/06/05 03:30:10;;;;;;;19.38;13.27;;;;;;;-142.64;100.00;58178.75;5071737;28;20507;-60
2022/06/05 03:32:36;;;;;;;23.30;15.35;;;;;;;-142.64;100.00;58178.75;5071943;28;20067;-61
2022/06/05 03:35:01;;;;;;;19.92;16.00;;;;;;;-142.64;100.00;58178.75;5072222;28;20418;-61
2022/06/05 03:37:27;;;;;;;21.55;15.70;;;;;;;-142.64;100.00;58178.75;5074444;28;20196;-59
2022/06/05 03:39:52;;;;;;;19.08;14.40;;;;;;;-142.64;100.00;58178.75;5075705;28;20037;-61
2022/06/05 03:42:18;;;;;;;20.10;15.55;;;;;;;-142.64;100.00;58178.75;5074381;28;20071;-61
2022/06/05 03:44:43;;;;;;;22.20;15.25;;;;;;;-142.64;100.00;58178.75;5075488;28;20033;-60
2022/06/05 03:47:09;;;;;;;21.38;14.75;;;;;;;-142.64;100.00;58178.75;5074416;28;20028;-60
2022/06/05 03:49:35;;;;;;;20.67;15.63;;;;;;;-142.64;100.00;58178.75;5074390;28;20062;-59
2022/06/05 03:52:03;;;;;;;19.77;15.13;;;;;;;-142.64;100.00;58178.75;5074239;28;20089;-59
2022/06/05 03:54:28;;;;;;;22.98;15.80;;;;;;;-142.64;100.00;58178.75;5074247;28;20108;-60
2022/06/05 03:56:54;;;;;;;18.25;14.73;;;;;;;-142.64;100.00;58178.75;5075219;28;20123;-59
2022/06/05 03:59:19;;;;;;;19.38;15.50;;;;;;;-142.64;100.00;58178.75;5071218;28;20060;-58
2022/06/05 04:01:44;;;;;;;20.63;15.23;;;;;;;-142.64;100.00;58178.75;5054951;28;20041;-56
2022/06/05 04:04:10;;;;;;;21.38;15.60;;;;;;;-142.64;100.00;58178.75;5055221;28;20036;-59
2022/06/05 04:06:35;;;;;;;18.42;15.68;;;;;;;-142.64;100.00;58178.75;5036575;28;20049;-61
2022/06/05 04:09:04;;;;;;;23.35;16.13;;;;;;;-142.64;100.00;58178.75;5054897;28;20158;-61
2022/06/05 04:11:31;;;;;;;22.75;15.68;;;;;;;-142.64;100.00;58178.75;5053701;28;20087;-55
2022/06/05 04:13:56;;;;;;;20.83;15.77;;;;;;;-142.64;100.00;58178.75;5054846;28;20033;-60
2022/06/05 04:16:24;;;;;;;24.13;16.75;;;;;;;-142.64;100.00;58178.75;5053981;28;20082;-60
2022/06/05 04:18:50;;;;;;;22.63;16.08;;;;;;;-142.64;100.00;58178.75;5055057;28;20072;-59
2022/06/05 04:21:37;;;;;;;21.55;15.52;;;;;;;-142.64;100.00;58178.75;5053698;28;20040;-60
2022/06/05 04:24:03;;;;;;;19.52;15.00;;;;;;;-142.64;100.00;58178.75;5054623;28;20040;-58
2022/06/05 04:26:31;;;;;;;23.65;15.68;;;;;;;-142.64;100.00;58178.75;5053595;28;20037;-60
2022/06/05 04:28:57;;;;;;;19.65;14.95;;;;;;;-142.64;100.00;58178.75;5054970;28;20040;-57
2022/06/05 04:31:35;;;;;;;21.58;15.68;;;;;;;-142.64;100.00;58178.75;5054851;28;20025;-56
2022/06/05 04:34:05;;;;;;;23.98;15.88;;;;;;;-142.64;100.00;58178.75;5054627;28;20032;-58
2022/06/05 04:36:31;;;;;;;20.17;15.82;;;;;;;-142.64;100.00;58178.75;5053536;28;20032;-56
2022/06/05 04:38:56;;;;;;;23.98;16.40;;;;;;;-142.64;100.00;58178.75;5053470;28;20040;-57
2022/06/05 04:41:24;;;;;;;21.08;15.57;;;;;;;-142.64;100.00;58178.75;5053334;28;20523;-59
2022/06/05 04:43:50;;;;;;;26.20;16.50;;;;;;;-142.64;100.00;58178.75;5053294;28;20044;-58
2022/06/05 04:46:17;;;;;;;23.55;16.27;;;;;;;-142.64;100.00;58178.75;5052963;28;20033;-58
2022/06/05 04:48:42;;;;;;;21.23;16.25;;;;;;;-142.64;100.00;58178.75;5054319;28;20033;-59
2022/06/05 04:51:09;;;;;;;24.17;16.17;;;;;;;-142.64;100.00;58178.75;5054149;28;20086;-55
2022/06/05 04:53:35;;;;;;;21.98;16.73;;;;;;;-142.64;100.00;58178.75;5054526;28;20060;-57
2022/06/05 04:56:05;;;;;;;23.10;16.33;;;;;;;-142.64;100.00;58178.75;5053160;28;20057;-60
2022/06/05 04:58:31;;;;;;;21.77;16.05;;;;;;;-142.64;100.00;58178.75;5053109;28;20029;-57
2022/06/05 05:00:56;;;;;;;23.65;16.90;;;;;;;-142.64;100.00;58178.75;5053956;28;20079;-59
2022/06/05 05:03:21;;;;;;;20.33;15.13;;;;;;;-142.64;100.00;58178.75;5053937;28;20039;-60
2022/06/05 05:05:47;;;;;;;21.70;16.15;;;;;;;-142.64;100.00;58178.75;5052857;28;20061;-59
2022/06/05 05:08:12;;;;;;;23.48;17.13;;;;;;;-142.64;100.00;58178.75;5053830;28;20033;-59
2022/06/05 05:10:38;;;;;;;23.00;17.33;;;;;;;-142.64;100.00;58178.75;5054093;28;20545;-57
2022/06/05 05:13:03;;;;;;;22.52;16.98;;;;;;;-142.64;100.00;58178.75;5053722;28;20029;-58
2022/06/05 05:15:28;;;;;;;22.60;15.65;;;;;;;-142.64;100.00;58178.75;5053943;28;20029;-59
2022/06/05 05:17:54;;;;;;;23.50;16.50;;;;;;;-142.64;100.00;58178.75;5052591;28;20127;-58
2022/06/05 05:20:20;;;;;;;25.35;17.15;;;;;;;-142.64;100.00;58178.75;5053870;28;20064;-58
2022/06/05 05:22:45;;;;;;;24.42;17.90;;;;;;;-142.64;100.00;58178.75;5053513;28;20024;-60
2022/06/05 05:25:11;;;;;;;22.00;16.17;;;;;;;-142.64;100.00;58178.75;5053853;28;20062;-59
2022/06/05 05:27:37;;;;;;;19.92;16.55;;;;;;;-142.64;100.00;58178.75;5053684;28;20040;-58
2022/06/05 05:30:05;;;;;;;24.02;16.95;;;;;;;-142.64;100.00;58178.75;5035979;28;20029;-55
2022/06/05 05:32:31;;;;;;;25.42;17.58;;;;;;;-142.64;100.00;58178.75;5052274;28;20037;-56
2022/06/05 05:34:57;;;;;;;26.00;16.92;;;;;;;-142.64;100.00;58178.75;5052073;28;20391;-58
2022/06/05 05:37:22;;;;;;;20.65;16.30;;;;;;;-142.64;100.00;58178.75;5053424;28;20047;-60
2022/06/05 05:42:32;;;;;;;28.63;16.73;;;;;;;-142.64;100.00;58178.75;5053403;28;20048;-59
2022/06/05 05:44:58;;;;;;;23.55;16.90;;;;;;;-142.64;100.00;58178.75;5053083;28;20438;-60
2022/06/05 05:47:29;;;;;;;21.88;16.85;;;;;;;-142.64;100.00;58178.75;5053342;28;20116;-61
2022/06/05 05:49:56;;;;;;;22.10;17.85;;;;;;;-142.64;100.00;58178.75;5052203;28;20036;-57
2022/06/05 05:52:22;;;;;;;22.90;17.27;;;;;;;-142.64;100.00;58178.75;5052047;28;20120;-61
2022/06/05 05:54:48;;;;;;;20.40;16.95;;;;;;;-142.64;100.00;58178.75;5053199;28;20040;-59
2022/06/05 05:57:13;;;;;;;20.20;16.73;;;;;;;-142.64;100.00;58178.75;5052842;28;20029;-59
2022/06/05 05:59:38;;;;;;;19.30;16.90;;;;;;;-142.64;100.00;58178.75;5051137;28;20131;-61
2022/06/05 06:02:10;;;;;;;22.63;16.75;;;;;;;-142.64;100.00;58178.75;5052755;28;20124;-62
2022/06/05 06:04:40;;;;;;;24.10;17.33;;;;;;;-142.64;100.00;58178.75;5052868;28;20527;-58
2022/06/05 06:07:05;;;;;;;23.42;17.60;;;;;;;-142.64;100.00;58178.75;5052966;28;20056;-58
2022/06/05 06:09:30;;;;;;;20.33;16.90;;;;;;;-142.64;100.00;58178.75;5034978;28;20066;-59
2022/06/05 06:11:56;;;;;;;22.40;16.10;;;;;;;-142.64;100.00;58178.75;5051543;28;20120;-59
2022/06/05 06:14:21;;;;;;;23.13;16.75;;;;;;;-142.64;100.00;58178.75;5052749;28;20033;-53
2022/06/05 06:16:46;;;;;;;21.42;15.93;;;;;;;-142.64;100.00;58178.75;5052611;28;20044;-56
2022/06/05 06:19:12;;;;;;;25.88;17.75;;;;;;;-142.64;100.00;58178.75;5051648;28;20033;-59
2022/06/05 06:21:37;;;;;;;21.30;16.52;;;;;;;-142.64;100.00;58178.75;5052675;28;20434;-58
2022/06/05 06:24:03;;;;;;;20.67;16.48;;;;;;;-142.64;100.00;58178.75;5051401;28;20039;-61
2022/06/05 06:26:28;;;;;;;21.85;17.23;;;;;;;-142.64;100.00;58178.75;5051396;28;20043;-61
2022/06/05 06:28:54;;;;;;;24.85;17.52;;;;;;;-142.64;100.00;58178.75;5051332;28;20055;-54
2022/06/05 06:31:19;;;;;;;20.63;16.92;;;;;;;-142.64;100.00;58178.75;5051109;28;20104;-59
2022/06/05 06:33:48;;;;;;;24.10;17.42;;;;;;;-142.64;100.00;58178.75;5052600;28;20060;-61
2022/06/05 06:36:14;;;;;;;21.63;16.60;;;;;;;-142.64;100.00;58178.75;5052475;28;20120;-57
2022/06/05 06:38:41;;;;;;;24.02;16.95;;;;;;;-142.64;100.00;58178.75;5052492;28;20029;-60
2022/06/05 06:41:12;;;;;;;22.02;17.00;;;;;;;-142.64;100.00;58178.75;5052347;28;20473;-58
2022/06/05 06:43:38;;;;;;;21.75;17.02;;;;;;;-142.64;100.00;58178.75;5052136;28;20040;-61
2022/06/05 06:46:04;;;;;;;21.02;16.45;;;;;;;-142.64;100.00;58178.75;5052115;28;20029;-58
2022/06/05 06:48:29;;;;;;;23.00;17.48;;;;;;;-142.64;100.00;58178.75;5052292;28;20045;-57
2022/06/05 06:50:57;;;;;;;19.88;16.65;;;;;;;-142.64;100.00;58178.75;5052221;28;20047;-58
2022/06/05 06:53:23;;;;;;;21.80;15.73;;;;;;;-142.64;100.00;58178.75;5050939;28;20040;-60
2022/06/05 06:55:49;;;;;;;20.15;16.73;;;;;;;-142.64;100.00;58178.75;5052177;28;20112;-60
2022/06/05 06:58:14;;;;;;;22.60;17.02;;;;;;;-142.64;100.00;58178.75;5050881;28;20377;-59
2022/06/05 07:00:40;;;;;;;23.70;17.35;;;;;;;-142.64;100.00;58178.75;5060528;28;20070;-57
2022/06/05 07:03:05;;;;;;;21.13;16.92;;;;;;;-142.64;100.00;58178.75;5070757;28;20033;-60
2022/06/05 07:05:31;;;;;;;20.90;16.27;;;;;;;-142.64;100.00;58178.75;5070380;28;20049;-59
2022/06/05 07:07:56;;;;;;;21.20;16.42;;;;;;;-142.64;100.00;58178.75;5072187;28;20037;-58
2022/06/05 07:10:22;;;;;;;20.98;16.83;;;;;;;-142.64;100.00;58178.75;5073380;28;20064;-60
2022/06/05 07:12:48;;;;;;;21.08;16.80;;;;;;;-142.64;100.00;58178.75;5074900;28;20119;-61
2022/06/05 07:15:14;;;;;;;17.95;15.85;;;;;;;-142.64;100.00;58178.75;5058272;28;20036;-60
2022/06/05 07:17:39;;;;;;;20.33;16.92;;;;;;;-142.64;100.00;58178.75;5075144;28;20426;-54
2022/06/05 07:20:05;;;;;;;20.33;16.75;;;;;;;-142.64;100.00;58178.75;5076106;28;20044;-60
2022/06/05 07:22:31;;;;;;;23.70;16.02;;;;;;;-142.64;100.00;58178.75;5075767;28;20511;-58
2022/06/05 07:24:56;;;;;;;20.92;17.33;;;;;;;-142.64;100.00;58178.75;5075958;28;20032;-56
2022/06/05 07:27:21;;;;;;;18.77;16.67;;;;;;;-142.64;100.00;58178.75;5074534;28;20475;-57
2022/06/05 07:29:47;;;;;;;19.30;15.60;;;;;;;-142.64;100.00;58178.75;5075646;28;20066;-57
2022/06/05 07:32:13;;;;;;;17.83;15.15;;;;;;;-142.64;100.00;58178.75;5075964;28;20032;-58
2022/06/05 07:34:39;;;;;;;19.40;16.02;;;;;;;-142.64;100.00;58178.75;5074720;28;20029;-59
2022/06/05 07:37:05;;;;;;;20.98;15.52;;;;;;;-142.64;100.00;58178.75;5074421;28;20082;-60
2022/06/05 07:39:30;;;;;;;19.15;16.40;;;;;;;-142.64;100.00;58178.75;5075670;28;20064;-58
2022/06/05 07:41:58;;;;;;;21.20;15.85;;;;;;;-142.64;100.00;58178.75;5075607;28;20404;-57
2022/06/05 07:44:25;;;;;;;17.70;15.02;;;;;;;-142.64;100.00;58178.75;5075324;28;20032;-58
2022/06/05 07:46:50;;;;;;;20.02;16.33;;;;;;;-142.64;100.00;58178.75;5074364;28;20028;-57
2022/06/05 07:49:16;;;;;;;17.20;15.07;;;;;;;-142.64;100.00;58178.75;5075574;28;20121;-58
2022/06/05 07:54:33;;;;;;;15.82;14.23;;;;;;;-142.64;100.00;58178.75;5075422;28;20071;-62
2022/06/05 07:57:09;;;;;;;16.20;14.52;;;;;;;-142.64;100.00;58178.75;5075577;28;20419;-61
2022/06/05 07:59:40;;;;;;;15.85;13.93;;;;;;;-142.64;100.00;58178.75;5075651;28;20028;-60
2022/06/05 08:02:10;;;;;;;;;;;;;;;-142.64;100.00;58178.75;5075747;28;20040;-57
2022/06/05 08:04:36;;;;;;;16.17;13.52;;;;;;;-142.64;100.00;58178.75;5074091;28;19912;-58
2022/06/05 08:07:03;;;;;;;18.75;14.88;;;;;;;-142.64;100.00;58178.75;5075082;28;20045;-59
2022/06/05 08:09:29;;;;;;;17.38;13.85;;;;;;;-142.64;100.00;58178.75;5073843;28;20442;-59
2022/06/05 08:11:55;;;;;;;15.48;13.98;;;;;;;-142.64;100.00;58178.75;5074965;28;20020;-58
2022/06/05 08:14:20;;;;;;;16.55;14.82;;;;;;;-142.64;100.00;58178.75;5073806;28;20028;-60
2022/06/05 08:16:46;;;;;;;15.23;13.77;;;;;;;-142.64;100.00;58178.75;5075165;28;20147;-59
2022/06/05 08:19:21;;;;;;;15.43;13.30;;;;;;;-142.64;100.00;58178.75;5075036;28;20437;-62
2022/06/05 08:21:47;;;;;;;15.57;14.07;;;;;;;-142.64;100.00;58178.75;5073766;28;20032;-60
2022/06/05 08:24:12;;;;;;;15.57;14.00;;;;;;;-142.64;100.00;58178.75;5073463;28;20036;-62
2022/06/05 08:27:11;;;;;;;15.35;13.20;;;;;;;-142.64;100.00;58178.75;5074879;28;20032;-61
2022/06/05 08:29:37;;;;;;;15.00;13.20;;;;;;;-142.64;100.00;58178.75;5071342;28;20040;-59
2022/06/05 08:32:03;;;;;;;15.13;13.52;;;;;;;-142.64;100.00;58178.75;5072926;28;20028;-59
2022/06/05 08:34:29;;;;;;;14.38;12.88;;;;;;;-142.64;100.00;58178.75;5071855;28;20039;-59
2022/06/05 08:42:40;;;;;;;15.00;12.43;;;;;;;-142.64;100.00;58178.75;5074438;28;20109;-61
2022/06/05 08:45:10;;;;;;;13.80;12.38;;;;;;;-142.64;100.00;58178.75;5073332;28;20051;-59
2022/06/05 08:47:45;;;;;;;12.75;11.45;;;;;;;-142.64;100.00;58178.75;5073241;28;20115;-60
2022/06/05 08:50:25;;;;;;;13.60;11.13;;;;;;;-142.64;100.00;58178.75;5074209;28;20037;-59
2022/06/05 08:52:57;;;;;;;14.75;12.25;;;;;;;-142.64;100.00;58178.75;5074219;28;20113;-60
2022/06/05 08:55:41;;;;;;;12.23;11.10;;;;;;;-142.64;100.00;58178.75;5073090;28;20036;-60
2022/06/05 08:58:29;;;;;;;13.23;11.93;;;;;;;-142.64;100.00;58178.75;5074364;28;20032;-60
2022/06/05 09:01:02;;;;;;;11.43;10.40;;;;;;;-142.64;100.00;58178.75;5072947;28;20021;-59
2022/06/05 09:03:36;;;;;;;12.93;11.30;;;;;;;-142.64;100.00;58178.75;5073905;28;20032;-59
2022/06/05 09:06:05;;;;;;;12.02;10.85;;;;;;;-142.64;100.00;58178.75;5073882;28;20132;-59
2022/06/05 09:08:34;;;;;;;12.05;10.35;;;;;;;-142.64;100.00;58178.75;5072895;28;20044;-59
2022/06/05 09:11:10;;;;;;;11.75;10.73;;;;;;;-142.64;100.00;58178.75;5072649;28;20471;-57
2022/06/05 09:13:50;;;;;;;11.80;10.70;;;;;;;-142.64;100.00;58178.75;5072477;28;20028;-59
2022/06/05 09:16:23;;;;;;;12.18;10.98;;;;;;;-142.64;100.00;58178.75;5074023;28;20032;-59
2022/06/05 09:18:48;;;;;;;11.57;10.48;;;;;;;-142.64;100.00;58178.75;5073824;28;20077;-58
2022/06/05 09:21:30;;;;;;;12.38;11.07;;;;;;;-142.64;100.00;58178.75;5073745;28;20478;-59
2022/06/05 09:24:15;;;;;;;12.55;11.45;;;;;;;-142.64;100.00;58178.75;5072391;28;20387;-59
2022/06/05 09:26:47;;;;;;;12.90;11.55;;;;;;;-142.64;100.00;58178.75;5055868;28;20020;-59
2022/06/05 09:29:43;;;;;;;12.40;11.18;;;;;;;-142.64;100.00;58178.75;5073655;28;20035;-61
2022/06/05 09:32:33;;;;;;;12.27;11.18;;;;;;;-142.64;100.00;58178.75;5073323;28;20060;-59
2022/06/05 09:35:02;;;;;;;15.30;13.90;;;;;;;-142.64;100.00;58178.75;5073597;28;20062;-59
2022/06/05 09:37:35;;;;;;;13.38;11.90;;;;;;;-142.64;100.00;58178.75;5073600;28;20151;-60
2022/06/05 09:40:26;;;;;;;13.70;12.30;;;;;;;-142.64;100.00;58178.75;5072086;28;20037;-59
2022/06/05 09:43:22;;;;;;;13.30;12.10;;;;;;;-142.64;100.00;58178.75;5071894;28;20029;-58
2022/06/05 09:46:00;;;;;;;15.05;12.88;;;;;;;-142.64;100.00;58178.75;5072208;28;20033;-59
2022/06/05 09:48:33;;;;;;;13.85;12.45;;;;;;;-142.64;100.00;58178.75;5073204;28;20054;-59
2022/06/05 09:50:59;;;;;;;15.60;13.52;;;;;;;-142.64;100.00;58178.75;5072993;28;20034;-58
2022/06/05 09:53:30;;;;;;;14.98;13.43;;;;;;;-142.64;100.00;58178.75;5071687;28;20373;-59
2022/06/05 09:55:59;;;;;;;14.88;13.35;;;;;;;-142.64;100.00;58178.75;5072040;28;20107;-58
2022/06/05 09:58:51;;;;;;;15.38;13.82;;;;;;;-142.64;100.00;58178.75;5073085;28;20032;-59
2022/06/05 10:01:28;;;;;;;15.30;13.82;;;;;;;-142.64;100.00;58178.75;5071812;28;20614;-60
2022/06/05 10:03:56;;;;;;;14.35;13.05;;;;;;;-142.64;100.00;58178.75;5071519;28;20139;-59
2022/06/05 10:06:26;;;;;;;13.95;12.55;;;;;;;-142.64;100.00;58178.75;5072686;28;20048;-60
2022/06/05 10:09:10;;;;;;;14.95;13.52;;;;;;;-142.64;100.00;58178.75;5071551;28;20039;-59
2022/06/05 10:12:07;;;;;;;16.35;14.65;;;;;;;-142.64;100.00;58178.75;5072605;28;20495;-56
2022/06/05 10:14:51;;;;;;;13.48;12.27;;;;;;;-142.64;100.00;58178.75;5073059;28;20029;-60
2022/06/05 10:17:20;;;;;;;15.82;13.07;;;;;;;-142.64;100.00;58178.75;5072750;28;20395;-58
2022/06/05 10:19:52;;;;;;;14.65;12.85;;;;;;;-142.64;100.00;58178.75;5072696;28;20106;-57
2022/06/05 10:22:29;;;;;;;14.65;13.25;;;;;;;-142.64;100.00;58178.75;5072504;28;20036;-60
2022/06/05 10:25:34;;;;;;;13.90;12.45;;;;;;;-142.64;100.00;58178.75;5071625;28;20028;-59
2022/06/05 10:28:03;;;;;;;14.35;12.95;;;;;;;-142.64;100.00;58178.75;5072653;28;20031;-58
2022/06/05 10:30:34;;;;;;;14.30;12.85;;;;;;;-142.64;100.00;58178.75;5072905;28;20032;-58
2022/06/05 10:33:04;;;;;;;16.02;14.00;;;;;;;-142.64;100.00;58178.75;5072247;28;20051;-59
2022/06/05 10:35:36;;;;;;;15.10;13.38;;;;;;;-142.64;100.00;58178.75;5071280;28;20032;-59
2022/06/05 10:38:24;;;;;;;14.68;13.23;;;;;;;-142.64;100.00;58178.75;5072228;28;20109;-59
2022/06/05 10:40:54;;;;;;;16.42;13.10;;;;;;;-142.64;100.00;58178.75;5072169;28;20035;-57
2022/06/05 10:43:26;;;;;;;15.77;13.80;;;;;;;-142.64;100.00;58178.75;5065730;28;20028;-59
2022/06/05 10:45:54;;;;;;;15.90;13.18;;;;;;;-142.64;100.00;58178.75;5013031;28;20044;-60
2022/06/05 10:48:57;;;;;;;15.05;13.00;;;;;;;-142.64;100.00;58178.75;5031132;28;20127;-58
2022/06/05 10:51:47;;;;;;;14.57;13.18;;;;;;;-142.64;100.00;58178.75;5031693;28;20037;-59
2022/06/05 10:54:15;;;;;;;16.00;13.65;;;;;;;-142.64;100.00;58178.75;5032007;28;20037;-60
2022/06/05 10:56:53;;;;;;;15.25;13.65;;;;;;;-142.64;100.00;58178.75;5030613;28;20124;-58
2022/06/05 10:59:33;;;;;;;16.15;14.55;;;;;;;-142.64;100.00;58178.75;5030910;28;20041;-61
2022/06/05 11:02:33;;;;;;;19.33;14.02;;;;;;;-142.64;100.00;58178.75;5030992;28;20025;-59
2022/06/05 11:04:58;;;;;;;17.38;13.93;;;;;;;-142.64;100.00;58178.75;5030544;28;20489;-58
2022/06/05 11:07:58;;;;;;;16.17;14.48;;;;;;;-142.64;100.00;58178.75;5032005;28;20035;-59
2022/06/05 11:13:43;;;;;;;15.50;13.63;;;;;;;-142.64;100.00;58178.75;5031174;28;20056;-59
2022/06/05 11:16:47;;;;;;;14.32;12.82;;;;;;;-142.64;100.00;58178.75;5030904;28;20029;-58
2022/06/05 11:19:23;;;;;;;16.70;13.98;;;;;;;-142.64;100.00;58178.75;5032120;28;20472;-59
2022/06/05 11:21:50;;;;;;;13.93;12.50;;;;;;;-142.64;100.00;58178.75;5030416;28;20030;-61
2022/06/05 11:24:27;;;;;;;18.20;14.63;;;;;;;-142.64;100.00;58178.75;5031319;28;20044;-59
2022/06/05 11:26:59;;;;;;;14.98;13.50;;;;;;;-142.64;100.00;58178.75;5030244;28;20026;-58
2022/06/05 11:29:26;;;;;;;15.10;13.55;;;;;;;-142.64;100.00;58178.75;5031862;28;20083;-59
2022/06/05 11:32:18;;;;;;;16.85;14.02;;;;;;;-142.64;100.00;58178.75;5030814;28;20025;-59